Time;durP1;ratioP1;P1;durP2;ratioP2;P2;SDS_P1;SDS_P2;PMS_P1;PMS_P2;Temp;Humidity;BMP_temperature;BMP_pressure;BME280_temperature;BME280_humidity;BME280_pressure;Samples;Min_cycle;Max_cycle;Signal;HPM_P1;HPM_P2
2023/06/03 00:00:53;;;;;;;6.68;4.10;;;13.40;71.70;;;;;;5037582;28;20029;-53
2023/06/03 00:03:39;;;;;;;6.20;4.20;;;13.30;71.70;;;;;;5033627;28;20042;-54
2023/06/03 00:06:25;;;;;;;7.07;4.43;;;13.20;72.00;;;;;;5030057;28;20126;-54
2023/06/03 00:09:11;;;;;;;5.82;4.20;;;13.10;71.90;;;;;;5031464;28;20402;-51
2023/06/03 00:11:57;;;;;;;5.95;4.43;;;13.10;72.10;;;;;;5032529;28;20025;-49
2023/06/03 00:14:42;;;;;;;5.78;3.60;;;13.10;72.10;;;;;;5031636;28;20034;-51
2023/06/03 00:17:30;;;;;;;9.15;4.60;;;12.90;72.30;;;;;;5029494;28;20072;-52
2023/06/03 00:20:16;;;;;;;6.57;3.67;;;12.80;72.50;;;;;;5020429;28;20037;-51
2023/06/03 00:23:05;;;;;;;7.38;4.05;;;12.70;72.50;;;;;;5010864;28;20022;-55
2023/06/03 00:25:51;;;;;;;4.72;3.05;;;12.70;72.90;;;;;;5018896;28;20029;-53
2023/06/03 00:28:37;;;;;;;5.65;3.30;;;12.80;72.60;;;;;;5033315;28;20095;-51
2023/06/03 00:31:23;;;;;;;6.65;3.22;;;12.90;72.70;;;;;;5034520;28;20080;-58
2023/06/03 00:34:09;;;;;;;7.80;3.47;;;12.90;72.70;;;;;;5035848;28;20060;-53
2023/06/03 00:36:55;;;;;;;4.72;3.35;;;12.80;72.60;;;;;;5029906;28;20029;-54
2023/06/03 00:39:41;;;;;;;4.40;3.13;;;12.80;73.30;;;;;;5020947;28;20029;-52
2023/06/03 00:42:27;;;;;;;4.30;3.03;;;12.80;72.90;;;;;;5017462;28;20136;-52
2023/06/03 00:45:13;;;;;;;4.80;2.90;;;12.70;73.10;;;;;;5013676;28;20030;-51
2023/06/03 00:47:59;;;;;;;5.97;3.13;;;12.70;72.60;;;;;;5013470;28;20033;-53
2023/06/03 00:50:45;;;;;;;3.58;3.03;;;12.70;72.50;;;;;;5014941;28;20103;-53
2023/06/03 00:53:31;;;;;;;4.85;3.13;;;12.70;72.80;;;;;;5014488;28;20033;-50
2023/06/03 00:56:19;;;;;;;2.90;2.60;;;12.70;72.80;;;;;;5013806;28;20154;-49
2023/06/03 00:59:05;;;;;;;4.93;3.22;;;12.70;72.90;;;;;;5013530;28;20034;-50
2023/06/03 01:01:51;;;;;;;4.65;2.78;;;12.60;72.80;;;;;;5012884;28;20503;-48
2023/06/03 01:04:37;;;;;;;3.58;2.70;;;12.70;73.00;;;;;;5014655;28;20406;-49
2023/06/03 01:07:46;;;;;;;4.05;3.00;;;12.70;73.20;;;;;;5013616;28;20510;-50
2023/06/03 01:10:49;;;;;;;4.18;2.72;;;12.70;73.20;;;;;;5012534;28;20030;-49
2023/06/03 01:13:46;;;;;;;4.05;2.95;;;12.50;73.40;;;;;;5015579;28;20057;-52
2023/06/03 01:16:34;;;;;;;4.35;3.03;;;12.50;73.50;;;;;;5011753;28;20540;-49
2023/06/03 01:19:34;;;;;;;5.97;3.00;;;12.40;73.60;;;;;;5011862;28;20084;-50
2023/06/03 01:22:24;;;;;;;4.25;3.47;;;12.40;73.70;;;;;;5012535;28;20084;-49
2023/06/03 01:25:16;;;;;;;4.85;3.28;;;12.40;73.50;;;;;;5014368;28;20069;-48
2023/06/03 01:28:03;;;;;;;7.05;3.03;;;12.40;73.30;;;;;;5012572;28;20474;-49
2023/06/03 01:30:50;;;;;;;5.38;3.10;;;12.30;73.60;;;;;;5013995;28;20080;-48
2023/06/03 01:33:37;;;;;;;5.70;3.30;;;12.30;73.70;;;;;;5021029;28;20026;-53
2023/06/03 01:36:23;;;;;;;5.60;3.13;;;12.20;74.00;;;;;;5019634;28;20022;-52
2023/06/03 01:39:11;;;;;;;4.78;2.97;;;12.20;73.90;;;;;;5012697;28;20045;-49
2023/06/03 01:41:57;;;;;;;5.05;2.90;;;12.20;74.10;;;;;;5013942;28;20030;-50
2023/06/03 01:44:43;;;;;;;8.15;3.13;;;12.30;74.30;;;;;;5015242;28;20426;-49
2023/06/03 01:47:30;;;;;;;7.20;3.65;;;12.20;75.00;;;;;;5013480;28;20061;-53
2023/06/03 01:50:17;;;;;;;7.53;4.00;;;12.30;76.40;;;;;;5012773;28;20061;-52
2023/06/03 01:53:03;;;;;;;4.70;3.95;;;12.20;77.70;;;;;;5015123;28;20026;-49
2023/06/03 01:55:49;;;;;;;6.28;3.70;;;12.10;78.70;;;;;;5031912;28;20022;-48
2023/06/03 01:58:35;;;;;;;5.60;3.50;;;12.10;78.90;;;;;;5024345;28;20494;-49
2023/06/03 02:01:21;;;;;;;4.72;3.72;;;12.10;79.10;;;;;;5012211;28;20116;-53
2023/06/03 02:04:07;;;;;;;4.38;3.30;;;12.10;79.00;;;;;;5013242;28;20066;-49
2023/06/03 02:06:56;;;;;;;6.80;3.75;;;11.90;79.90;;;;;;5012797;28;20044;-49
2023/06/03 02:09:42;;;;;;;5.97;3.42;;;11.80;79.80;;;;;;5012909;28;20026;-51
2023/06/03 02:12:28;;;;;;;4.20;3.22;;;11.80;80.40;;;;;;5013276;28;20626;-50
2023/06/03 02:15:14;;;;;;;5.70;3.30;;;11.80;80.80;;;;;;5020343;28;20131;-48
2023/06/03 02:18:00;;;;;;;6.57;3.78;;;11.80;80.60;;;;;;5031347;28;20141;-49
2023/06/03 02:20:46;;;;;;;5.68;3.33;;;11.70;80.90;;;;;;5033039;28;20033;-49
2023/06/03 02:23:32;;;;;;;6.03;3.33;;;11.60;80.80;;;;;;5040036;28;20029;-48
2023/06/03 02:26:18;;;;;;;5.53;3.95;;;11.40;81.30;;;;;;5042137;28;20030;-49
2023/06/03 02:29:05;;;;;;;5.88;3.58;;;11.40;81.10;;;;;;5032511;28;20037;-47
2023/06/03 02:31:53;;;;;;;7.57;3.65;;;11.20;81.40;;;;;;5030079;28;20029;-49
2023/06/03 02:34:38;;;;;;;5.65;4.07;;;11.10;81.60;;;;;;5031892;28;20049;-49
2023/06/03 02:37:25;;;;;;;5.20;3.55;;;11.00;81.70;;;;;;5029810;28;20077;-49
2023/06/03 02:40:12;;;;;;;9.73;3.50;;;11.10;81.60;;;;;;5030122;28;20033;-48
2023/06/03 02:42:57;;;;;;;5.45;3.55;;;11.10;81.80;;;;;;5030031;28;20026;-50
2023/06/03 02:45:43;;;;;;;7.03;3.85;;;11.10;81.70;;;;;;5030640;28;20498;-50
2023/06/03 02:48:29;;;;;;;5.05;3.80;;;11.10;81.70;;;;;;5029080;28;20026;-48
2023/06/03 02:51:15;;;;;;;7.45;3.35;;;11.20;81.20;;;;;;5031643;28;20065;-50
2023/06/03 02:54:01;;;;;;;4.97;3.40;;;11.10;80.60;;;;;;5032734;28;20026;-48
2023/06/03 02:56:48;;;;;;;6.28;3.80;;;11.00;81.10;;;;;;5034526;28;20017;-49
2023/06/03 02:59:34;;;;;;;6.32;4.10;;;10.80;81.70;;;;;;5031279;28;20090;-48
2023/06/03 03:02:20;;;;;;;5.53;4.20;;;10.80;82.30;;;;;;5033161;28;20457;-49
2023/06/03 03:05:07;;;;;;;5.30;3.85;;;10.80;83.00;;;;;;5024208;28;20030;-48
2023/06/03 03:07:54;;;;;;;4.15;3.58;;;10.70;83.50;;;;;;5012505;28;20110;-48
2023/06/03 03:10:40;;;;;;;4.85;3.72;;;10.70;83.80;;;;;;5011448;28;20502;-52
2023/06/03 03:13:26;;;;;;;3.88;3.30;;;10.50;83.70;;;;;;5011241;28;20025;-49
2023/06/03 03:16:12;;;;;;;4.28;3.13;;;10.60;83.80;;;;;;5012144;28;20030;-50
2023/06/03 03:18:59;;;;;;;5.22;4.05;;;10.60;83.70;;;;;;5010369;28;20111;-48
2023/06/03 03:21:45;;;;;;;8.40;3.60;;;10.60;84.40;;;;;;5012237;28;20109;-48
2023/06/03 03:24:31;;;;;;;9.13;4.00;;;10.70;84.60;;;;;;5010946;28;20031;-49
2023/06/03 03:27:19;;;;;;;7.32;3.75;;;10.70;84.40;;;;;;5010682;28;20038;-45
2023/06/03 03:30:06;;;;;;;6.18;4.00;;;10.90;84.80;;;;;;5011806;28;20034;-46
2023/06/03 03:32:52;;;;;;;5.88;3.83;;;10.90;84.00;;;;;;5011693;28;20034;-45
2023/06/03 03:35:40;;;;;;;5.43;3.90;;;10.90;83.90;;;;;;5013621;28;20048;-45
2023/06/03 03:38:26;;;;;;;5.93;4.30;;;10.90;84.20;;;;;;5010636;28;20413;-47
2023/06/03 03:41:12;;;;;;;5.43;4.07;;;10.90;84.90;;;;;;5010932;28;20038;-51
2023/06/03 03:43:58;;;;;;;6.10;4.43;;;10.70;85.30;;;;;;5012174;28;20533;-48
2023/06/03 03:46:55;;;;;;;5.47;4.38;;;10.60;85.00;;;;;;5010461;28;20233;-48
2023/06/03 03:49:41;;;;;;;7.60;4.60;;;10.70;85.10;;;;;;5012335;28;20413;-50
2023/06/03 03:52:30;;;;;;;6.60;4.45;;;10.70;85.00;;;;;;5011652;28;20087;-53
2023/06/03 03:55:16;;;;;;;6.68;4.70;;;10.60;84.70;;;;;;5014154;28;20429;-50
2023/06/03 03:58:03;;;;;;;7.78;5.22;;;10.60;84.40;;;;;;5010810;28;20030;-53
2023/06/03 04:00:51;;;;;;;8.73;5.07;;;10.60;83.90;;;;;;5015850;28;20490;-48
2023/06/03 04:03:40;;;;;;;8.38;5.78;;;10.70;83.20;;;;;;5015573;28;20033;-47
2023/06/03 04:06:38;;;;;;;11.55;5.22;;;10.70;83.00;;;;;;5015467;28;20129;-48
2023/06/03 04:09:24;;;;;;;7.40;5.40;;;10.60;82.70;;;;;;5015393;28;20041;-47
2023/06/03 04:12:17;;;;;;;7.95;4.97;;;10.70;82.60;;;;;;5031190;28;20080;-47
2023/06/03 04:15:04;;;;;;;7.85;5.18;;;10.70;83.40;;;;;;5034832;28;20405;-47
2023/06/03 04:17:50;;;;;;;8.30;5.72;;;10.70;83.70;;;;;;5033338;28;20438;-49
2023/06/03 04:20:43;;;;;;;9.40;6.20;;;10.70;83.70;;;;;;5035302;28;20032;-48
2023/06/03 04:23:29;;;;;;;6.93;5.28;;;10.60;83.90;;;;;;5034459;28;20478;-48
2023/06/03 04:26:15;;;;;;;7.38;5.55;;;10.60;84.00;;;;;;5034440;28;20030;-48
2023/06/03 04:29:02;;;;;;;6.50;5.35;;;10.70;84.00;;;;;;5014602;28;20098;-50
2023/06/03 04:31:47;;;;;;;7.13;5.90;;;10.70;83.30;;;;;;5014653;28;20026;-48
2023/06/03 04:34:34;;;;;;;7.40;5.65;;;10.70;83.60;;;;;;5013327;28;20022;-53
2023/06/03 04:37:21;;;;;;;9.07;6.22;;;10.70;83.70;;;;;;5013953;28;20033;-47
2023/06/03 04:40:09;;;;;;;7.25;5.88;;;10.80;83.30;;;;;;5015239;28;20491;-48
2023/06/03 04:42:55;;;;;;;9.43;5.95;;;10.70;83.30;;;;;;5015954;28;20030;-50
2023/06/03 04:45:44;;;;;;;7.10;5.75;;;10.70;83.10;;;;;;5015628;28;20045;-51
2023/06/03 04:48:30;;;;;;;6.63;5.68;;;10.80;83.20;;;;;;5029228;28;20242;-49
2023/06/03 04:51:16;;;;;;;7.72;5.72;;;10.90;83.10;;;;;;5021175;28;20406;-49
2023/06/03 04:54:03;;;;;;;6.95;5.30;;;10.90;83.10;;;;;;5018845;28;20530;-50
2023/06/03 04:56:49;;;;;;;7.80;5.25;;;11.10;83.20;;;;;;5016495;28;20033;-51
2023/06/03 04:59:35;;;;;;;7.15;5.30;;;11.20;82.30;;;;;;5015669;28;20026;-52
2023/06/03 05:02:23;;;;;;;6.20;4.70;;;11.30;82.60;;;;;;5013996;28;20034;-50
2023/06/03 05:05:10;;;;;;;8.90;5.05;;;11.30;82.70;;;;;;5013330;28;20029;-54
2023/06/03 05:07:57;;;;;;;7.28;5.43;;;11.50;82.30;;;;;;5012847;28;20041;-52
2023/06/03 05:10:42;;;;;;;7.47;4.65;;;11.70;81.40;;;;;;5012481;28;20034;-46
2023/06/03 05:13:28;;;;;;;5.40;4.13;;;11.70;81.70;;;;;;5013695;28;20020;-46
2023/06/03 05:16:14;;;;;;;5.38;4.32;;;11.70;80.40;;;;;;5014451;28;20084;-50
2023/06/03 05:19:00;;;;;;;5.28;4.15;;;11.70;80.70;;;;;;5027986;28;20033;-49
2023/06/03 05:21:46;;;;;;;7.90;4.18;;;11.70;80.90;;;;;;5018468;28;20036;-48
2023/06/03 05:24:32;;;;;;;5.95;3.88;;;11.90;80.70;;;;;;5033051;28;20032;-51
2023/06/03 05:27:18;;;;;;;5.43;4.30;;;12.10;80.80;;;;;;5044074;28;20117;-53
2023/06/03 05:30:04;;;;;;;4.68;4.00;;;12.20;79.10;;;;;;5044187;28;20041;-51
2023/06/03 05:32:50;;;;;;;5.72;4.03;;;12.30;79.10;;;;;;5032051;28;20488;-52
2023/06/03 05:35:36;;;;;;;4.68;3.80;;;12.40;78.80;;;;;;5012445;28;20022;-51
2023/06/03 05:38:23;;;;;;;5.88;3.80;;;12.40;77.60;;;;;;5013115;28;20113;-49
2023/06/03 05:41:09;;;;;;;5.20;3.53;;;12.40;77.80;;;;;;5023367;28;20038;-53
2023/06/03 05:43:55;;;;;;;5.85;3.67;;;12.40;78.50;;;;;;5032263;28;20049;-53
2023/06/03 05:46:41;;;;;;;9.30;3.97;;;12.60;77.90;;;;;;5031726;28;20044;-50
2023/06/03 05:49:27;;;;;;;5.90;4.13;;;12.60;77.50;;;;;;5031142;28;20033;-46
2023/06/03 05:52:13;;;;;;;7.13;4.15;;;12.60;77.50;;;;;;5029241;28;20557;-50
2023/06/03 05:54:59;;;;;;;7.97;4.05;;;12.60;77.50;;;;;;5032355;28;20018;-54
2023/06/03 05:57:45;;;;;;;5.45;3.90;;;12.60;77.70;;;;;;5030525;28;20494;-50
2023/06/03 06:00:30;;;;;;;5.80;3.53;;;12.70;77.80;;;;;;5018120;28;20542;-47
2023/06/03 06:03:16;;;;;;;6.28;3.50;;;12.70;77.50;;;;;;5026314;28;20030;-46
2023/06/03 06:06:02;;;;;;;5.32;3.83;;;12.70;77.90;;;;;;5014068;28;20018;-49
2023/06/03 06:08:48;;;;;;;9.40;4.30;;;12.90;77.70;;;;;;5012898;28;20021;-49
2023/06/03 06:11:35;;;;;;;8.85;4.22;;;13.00;77.80;;;;;;5011993;28;20095;-48
2023/06/03 06:14:21;;;;;;;5.80;3.53;;;13.00;77.00;;;;;;5012825;28;20026;-50
2023/06/03 06:17:06;;;;;;;6.05;4.22;;;13.10;76.70;;;;;;5017193;28;20053;-48
2023/06/03 06:19:52;;;;;;;4.45;3.50;;;13.20;76.80;;;;;;5040341;28;20033;-46
2023/06/03 06:22:38;;;;;;;6.00;4.10;;;13.10;76.70;;;;;;5028597;28;20067;-49
2023/06/03 06:25:24;;;;;;;7.88;3.90;;;13.00;77.30;;;;;;5011686;28;20025;-50
2023/06/03 06:28:11;;;;;;;5.65;4.10;;;13.10;77.80;;;;;;5030336;28;20493;-49
2023/06/03 06:31:04;;;;;;;4.82;4.00;;;13.10;77.00;;;;;;5025795;28;20121;-48
2023/06/03 06:33:50;;;;;;;5.78;4.20;;;13.20;77.50;;;;;;5012706;28;20129;-50
2023/06/03 06:36:49;;;;;;;6.10;4.13;;;13.20;77.30;;;;;;5011276;28;20053;-48
2023/06/03 06:39:46;;;;;;;7.95;4.32;;;13.40;77.40;;;;;;5030695;28;20033;-51
2023/06/03 06:42:35;;;;;;;7.20;4.30;;;13.60;77.30;;;;;;5032299;28;20429;-47
2023/06/03 06:45:23;;;;;;;4.82;4.25;;;13.70;77.20;;;;;;5032670;28;20454;-47
2023/06/03 06:48:11;;;;;;;7.07;5.80;;;13.70;77.10;;;;;;5031107;28;20032;-47
2023/06/03 06:50:59;;;;;;;6.05;4.38;;;13.70;77.00;;;;;;5031672;28;20136;-46
2023/06/03 06:53:48;;;;;;;7.55;4.32;;;13.80;77.10;;;;;;5013130;28;20474;-50
2023/06/03 06:56:34;;;;;;;6.22;4.13;;;13.90;76.90;;;;;;5011453;28;20080;-49
2023/06/03 06:59:20;;;;;;;5.78;3.80;;;14.10;76.10;;;;;;5012421;28;20116;-51
2023/06/03 07:02:06;;;;;;;6.30;3.92;;;14.00;75.90;;;;;;5014215;28;20030;-50
2023/06/03 07:04:52;;;;;;;12.40;4.50;;;14.10;76.20;;;;;;5012489;28;20029;-51
2023/06/03 07:07:38;;;;;;;5.35;4.00;;;14.10;76.00;;;;;;5031168;28;20033;-51
2023/06/03 07:10:24;;;;;;;6.72;3.95;;;14.00;76.10;;;;;;5032545;28;20021;-50
2023/06/03 07:13:12;;;;;;;6.28;4.13;;;14.10;76.30;;;;;;5036073;28;20386;-54
2023/06/03 07:16:00;;;;;;;6.63;4.07;;;14.20;76.40;;;;;;5035291;28;20026;-50
2023/06/03 07:18:46;;;;;;;10.10;4.38;;;14.20;76.20;;;;;;5027838;28;20029;-49
2023/06/03 07:21:35;;;;;;;6.45;4.63;;;14.30;76.30;;;;;;5011716;28;20057;-48
2023/06/03 07:24:21;;;;;;;7.95;3.90;;;14.30;76.60;;;;;;5028384;28;20041;-51
2023/06/03 07:27:11;;;;;;;6.63;3.97;;;14.40;76.20;;;;;;5025940;28;20082;-52
2023/06/03 07:29:58;;;;;;;8.85;4.80;;;14.40;76.30;;;;;;5025907;28;20021;-49
2023/06/03 07:32:44;;;;;;;8.65;5.13;;;14.40;75.90;;;;;;5021320;28;20037;-51
2023/06/03 07:35:30;;;;;;;6.85;3.95;;;14.50;76.30;;;;;;5028380;28;20036;-47
2023/06/03 07:38:37;;;;;;;7.20;4.60;;;14.60;76.60;;;;;;5032499;28;20109;-50
2023/06/03 07:41:50;;;;;;;5.45;3.97;;;14.50;76.80;;;;;;5029456;28;20032;-49
2023/06/03 07:44:44;;;;;;;5.13;3.70;;;14.60;76.40;;;;;;5026852;28;20034;-49
2023/06/03 07:47:31;;;;;;;7.60;3.87;;;14.70;76.20;;;;;;5034354;28;20057;-53
2023/06/03 07:50:21;;;;;;;7.80;4.13;;;14.90;76.00;;;;;;5019885;28;20517;-52
2023/06/03 07:53:08;;;;;;;7.55;4.05;;;14.90;75.70;;;;;;5038439;28;20026;-53
2023/06/03 07:55:54;;;;;;;7.35;4.20;;;14.80;75.40;;;;;;5038196;28;20029;-48
2023/06/03 07:58:40;;;;;;;7.47;3.80;;;14.90;75.80;;;;;;5037736;28;20033;-48
2023/06/03 08:01:26;;;;;;;5.68;3.80;;;14.90;75.80;;;;;;5038727;28;20114;-47
2023/06/03 08:04:28;;;;;;;7.40;4.13;;;14.70;75.70;;;;;;5035720;28;20037;-51
2023/06/03 08:07:15;;;;;;;6.15;3.35;;;14.90;76.00;;;;;;5031349;28;20040;-50
2023/06/03 08:10:03;;;;;;;5.32;3.55;;;15.10;75.80;;;;;;5038589;28;20025;-49
2023/06/03 08:12:49;;;;;;;5.32;3.70;;;15.30;75.70;;;;;;5022712;28;20022;-49
2023/06/03 08:15:37;;;;;;;6.03;4.10;;;15.40;74.80;;;;;;5037789;28;20082;-50
2023/06/03 08:18:44;;;;;;;6.10;3.50;;;15.70;74.60;;;;;;5031898;28;20109;-49
2023/06/03 08:21:33;;;;;;;6.10;3.50;;;15.80;74.50;;;;;;5033381;28;20045;-46
2023/06/03 08:24:19;;;;;;;6.47;3.30;;;15.90;74.60;;;;;;5032343;28;20037;-47
2023/06/03 08:27:05;;;;;;;7.00;4.05;;;16.10;74.20;;;;;;5035787;28;20037;-52
2023/06/03 08:29:52;;;;;;;6.18;3.42;;;16.20;73.10;;;;;;5037814;28;20029;-52
2023/06/03 08:32:38;;;;;;;4.78;3.63;;;16.20;73.00;;;;;;5034261;28;20069;-49
2023/06/03 08:35:24;;;;;;;8.80;3.80;;;16.20;73.30;;;;;;5037931;28;20092;-51
2023/06/03 08:38:11;;;;;;;5.47;3.40;;;16.20;72.50;;;;;;5035285;28;20026;-51
2023/06/03 08:40:58;;;;;;;7.88;3.30;;;16.20;72.90;;;;;;5033458;28;20033;-46
2023/06/03 08:43:50;;;;;;;12.50;3.90;;;16.40;72.40;;;;;;5031802;28;20084;-49
2023/06/03 08:46:53;;;;;;;8.02;3.38;;;16.40;72.40;;;;;;5043586;28;20025;-46
2023/06/03 08:50:05;;;;;;;7.32;3.28;;;16.60;72.80;;;;;;5030374;28;20382;-48
2023/06/03 08:52:55;;;;;;;7.22;3.67;;;16.80;71.50;;;;;;5031678;28;20029;-51
2023/06/03 08:55:45;;;;;;;8.35;3.50;;;17.00;71.30;;;;;;5034336;28;20038;-49
2023/06/03 08:58:35;;;;;;;6.75;3.40;;;16.90;71.80;;;;;;5052292;28;20038;-49
2023/06/03 09:01:32;;;;;;;8.18;3.25;;;16.80;71.60;;;;;;5035428;28;20709;-47
2023/06/03 09:04:19;;;;;;;6.72;3.90;;;16.70;72.00;;;;;;5030122;28;20029;-49
2023/06/03 09:07:07;;;;;;;7.20;4.20;;;16.80;72.90;;;;;;5032374;28;20112;-48
2023/06/03 09:09:55;;;;;;;5.40;3.75;;;17.00;73.00;;;;;;5022314;28;20510;-49
2023/06/03 09:12:41;;;;;;;8.57;4.55;;;17.30;72.30;;;;;;5025077;28;20029;-50
2023/06/03 09:15:29;;;;;;;8.15;3.90;;;17.60;72.30;;;;;;5020930;28;20030;-48
2023/06/03 09:18:15;;;;;;;6.03;3.80;;;17.90;71.20;;;;;;5023516;28;20052;-50
2023/06/03 09:21:02;;;;;;;5.55;3.25;;;18.10;70.60;;;;;;5006300;28;20022;-48
2023/06/03 09:23:48;;;;;;;6.22;3.80;;;18.10;70.70;;;;;;5021299;28;20148;-52
2023/06/03 09:26:34;;;;;;;6.65;3.85;;;18.10;70.70;;;;;;5026913;28;20069;-50
2023/06/03 09:29:20;;;;;;;6.97;3.70;;;18.10;70.90;;;;;;5029402;28;20099;-53
2023/06/03 09:32:07;;;;;;;8.98;4.28;;;18.30;70.30;;;;;;5027039;28;20446;-51
2023/06/03 09:34:54;;;;;;;8.63;3.67;;;18.40;70.20;;;;;;5043026;28;20029;-53
2023/06/03 09:37:58;;;;;;;13.00;4.93;;;18.50;70.50;;;;;;5027578;28;20076;-50
2023/06/03 09:40:44;;;;;;;6.95;3.83;;;18.60;69.60;;;;;;5029580;28;20472;-48
2023/06/03 09:43:30;;;;;;;7.57;3.90;;;18.50;67.90;;;;;;5032543;28;20049;-52
2023/06/03 09:46:16;;;;;;;5.15;3.75;;;18.50;68.40;;;;;;5024366;28;20518;-50
2023/06/03 09:49:19;;;;;;;5.57;3.30;;;18.20;69.80;;;;;;5029545;28;20126;-52
2023/06/03 09:52:11;;;;;;;8.10;3.83;;;18.50;70.40;;;;;;5026229;28;20029;-50
2023/06/03 09:55:04;;;;;;;7.20;4.10;;;18.70;69.60;;;;;;5028473;28;20351;-51
2023/06/03 09:58:09;;;;;;;8.20;4.80;;;18.60;66.90;;;;;;5030562;28;20057;-47
2023/06/03 10:00:56;;;;;;;9.27;5.60;;;18.50;66.90;;;;;;5033218;28;20034;-48
2023/06/03 10:03:57;;;;;;;5.80;4.40;;;18.80;66.90;;;;;;5027535;28;20030;-50
2023/06/03 10:06:44;;;;;;;5.60;3.35;;;18.80;67.50;;;;;;5021887;28;20497;-52
2023/06/03 10:09:30;;;;;;;5.93;3.33;;;18.70;67.00;;;;;;5021428;28;20029;-54
2023/06/03 10:12:36;;;;;;;5.10;3.10;;;18.60;66.80;;;;;;5028829;28;20049;-51
2023/06/03 10:15:37;;;;;;;8.45;3.78;;;18.70;64.60;;;;;;5032385;28;20033;-53
2023/06/03 10:18:40;;;;;;;8.45;3.42;;;19.00;64.80;;;;;;5026509;28;20478;-49
2023/06/03 10:21:31;;;;;;;8.65;5.65;;;19.00;65.20;;;;;;5027269;28;20033;-49
2023/06/03 10:24:18;;;;;;;6.97;3.15;;;19.20;65.20;;;;;;5027634;28;20083;-47
2023/06/03 10:27:05;;;;;;;5.72;3.40;;;19.40;65.70;;;;;;5027503;28;20037;-48
2023/06/03 10:29:55;;;;;;;6.38;3.97;;;19.60;65.30;;;;;;5029651;28;20104;-48
2023/06/03 10:32:43;;;;;;;4.32;3.15;;;19.50;64.40;;;;;;5032788;28;20140;-48
2023/06/03 10:35:34;;;;;;;5.55;3.25;;;19.40;64.20;;;;;;5029104;28;20028;-47
2023/06/03 10:38:20;;;;;;;5.30;2.80;;;19.30;60.90;;;;;;5020499;28;20071;-47
2023/06/03 10:41:09;;;;;;;5.78;3.05;;;19.20;59.90;;;;;;5022630;28;20033;-47
2023/06/03 10:43:57;;;;;;;6.43;3.55;;;19.30;60.80;;;;;;5023825;28;20038;-47
2023/06/03 10:46:51;;;;;;;10.18;5.10;;;19.30;60.20;;;;;;5021623;28;20206;-50
2023/06/03 10:49:53;;;;;;;7.50;3.20;;;19.30;60.50;;;;;;5021370;28;20025;-51
2023/06/03 10:52:49;;;;;;;6.97;3.28;;;19.50;60.70;;;;;;5018115;28;20032;-53
2023/06/03 10:56:05;;;;;;;6.63;3.00;;;19.60;60.80;;;;;;5021035;28;20029;-50
2023/06/03 10:59:01;;;;;;;7.38;3.50;;;19.50;61.30;;;;;;5018726;28;20515;-50
2023/06/03 11:02:01;;;;;;;8.43;3.00;;;19.60;62.10;;;;;;5028504;28;20405;-50
2023/06/03 11:04:47;;;;;;;5.70;3.08;;;19.70;61.90;;;;;;5025671;28;20072;-50
2023/06/03 11:07:33;;;;;;;5.97;3.15;;;19.90;61.80;;;;;;5023686;28;20041;-50
2023/06/03 11:10:39;;;;;;;12.57;3.40;;;20.00;61.70;;;;;;5028082;28;20105;-53
2023/06/03 11:13:44;;;;;;;9.13;3.70;;;20.00;61.70;;;;;;5022416;28;20029;-47
2023/06/03 11:16:30;;;;;;;7.47;3.30;;;20.00;61.70;;;;;;5027138;28;20117;-49
2023/06/03 11:19:29;;;;;;;8.77;3.30;;;20.10;61.30;;;;;;5029246;28;20060;-49
2023/06/03 11:22:27;;;;;;;9.90;3.78;;;20.10;60.30;;;;;;5031203;28;20034;-52
2023/06/03 11:25:29;;;;;;;14.68;9.50;;;19.90;60.30;;;;;;5021737;28;20036;-50
2023/06/03 11:28:42;;;;;;;7.57;4.18;;;20.10;60.90;;;;;;5019267;28;20029;-48
2023/06/03 11:31:29;;;;;;;6.15;3.83;;;20.20;60.50;;;;;;5041605;28;20029;-53
2023/06/03 11:34:23;;;;;;;9.77;3.35;;;20.30;61.40;;;;;;5031023;28;20025;-54
2023/06/03 11:37:11;;;;;;;9.48;3.08;;;20.20;60.60;;;;;;5028963;28;20124;-54
2023/06/03 11:40:06;;;;;;;6.60;3.30;;;20.30;60.80;;;;;;5033583;28;20017;-48
2023/06/03 11:42:53;;;;;;;;;;;20.50;60.30;;;;;;5026243;28;20290;-49
2023/06/03 11:45:39;;;;;;;6.10;3.50;;;20.30;59.70;;;;;;5031477;28;19916;-49
2023/06/03 11:48:36;;;;;;;10.38;4.18;;;20.40;59.90;;;;;;5011919;28;20034;-48
2023/06/03 11:51:24;;;;;;;5.60;3.67;;;20.40;59.90;;;;;;5022755;28;20486;-52
2023/06/03 11:54:13;;;;;;;6.10;3.67;;;20.60;60.30;;;;;;5016116;28;20033;-51
2023/06/03 11:57:02;;;;;;;6.60;3.33;;;20.70;61.00;;;;;;5024221;28;20494;-50
2023/06/03 11:59:51;;;;;;;6.10;3.22;;;20.80;59.90;;;;;;5019259;28;20026;-48
2023/06/03 12:02:38;;;;;;;3.80;2.85;;;20.90;59.40;;;;;;5012812;28;20030;-50
2023/06/03 12:05:24;;;;;;;7.43;3.50;;;21.00;59.10;;;;;;5023862;28;20496;-50
2023/06/03 12:08:10;;;;;;;6.07;3.30;;;21.00;58.60;;;;;;5014184;28;20045;-51
2023/06/03 12:10:56;;;;;;;5.28;3.38;;;21.00;58.90;;;;;;5031884;28;20117;-49
2023/06/03 12:13:42;;;;;;;5.43;3.30;;;21.20;58.20;;;;;;5012890;28;20034;-52
2023/06/03 12:16:29;;;;;;;5.57;3.45;;;21.40;58.10;;;;;;5014394;28;20033;-50
2023/06/03 12:19:16;;;;;;;5.82;3.72;;;21.30;58.20;;;;;;5032145;28;20048;-50
2023/06/03 12:22:02;;;;;;;7.32;3.20;;;21.10;58.20;;;;;;5034271;28;20041;-54
2023/06/03 12:24:48;;;;;;;6.13;3.38;;;21.10;58.90;;;;;;5033041;28;20040;-51
2023/06/03 12:27:34;;;;;;;12.25;9.60;;;21.20;58.20;;;;;;5053117;28;20075;-49
2023/06/03 12:30:31;;;;;;;9.80;6.45;;;21.40;58.30;;;;;;5055751;28;20103;-51
2023/06/03 12:33:18;;;;;;;6.57;3.60;;;21.40;58.20;;;;;;5062021;28;20051;-51
2023/06/03 12:36:04;;;;;;;6.50;4.75;;;21.50;57.60;;;;;;5053495;28;20501;-50
2023/06/03 12:38:58;;;;;;;6.68;3.35;;;21.40;58.30;;;;;;5054189;28;20037;-48
2023/06/03 12:41:52;;;;;;;6.72;4.32;;;21.50;57.60;;;;;;5053537;28;20486;-53
2023/06/03 12:44:48;;;;;;;7.72;3.50;;;21.70;58.10;;;;;;5053274;28;20040;-48
2023/06/03 12:47:45;;;;;;;7.22;3.55;;;21.90;57.20;;;;;;5052751;28;20041;-49
2023/06/03 12:50:32;;;;;;;8.27;3.78;;;22.20;56.90;;;;;;5053197;28;20065;-51
2023/06/03 12:53:18;;;;;;;6.38;3.30;;;22.40;57.20;;;;;;5054214;28;20049;-49
2023/06/03 12:56:04;;;;;;;7.07;4.20;;;22.60;57.30;;;;;;5053095;28;20036;-54
2023/06/03 12:58:52;;;;;;;5.35;3.10;;;22.50;56.10;;;;;;5053383;28;20029;-54
2023/06/03 13:01:38;;;;;;;6.85;3.50;;;22.40;55.40;;;;;;5053220;28;20029;-55
2023/06/03 13:04:27;;;;;;;10.95;3.70;;;22.20;56.30;;;;;;5052519;28;20565;-50
2023/06/03 13:07:13;;;;;;;8.10;4.38;;;22.10;56.90;;;;;;5054045;28;20043;-54
2023/06/03 13:10:00;;;;;;;4.65;3.30;;;22.10;57.10;;;;;;5051889;28;20044;-50
2023/06/03 13:12:47;;;;;;;6.57;3.65;;;22.10;57.10;;;;;;5053394;28;20033;-50
2023/06/03 13:15:33;;;;;;;7.03;5.03;;;22.10;56.60;;;;;;5051315;28;20421;-50
2023/06/03 13:18:19;;;;;;;7.35;5.78;;;22.20;57.10;;;;;;5052446;28;20526;-53
2023/06/03 13:21:05;;;;;;;10.10;6.40;;;22.50;57.50;;;;;;5052059;28;20076;-50
2023/06/03 13:23:51;;;;;;;7.13;4.97;;;22.60;55.40;;;;;;5051688;28;20394;-50
2023/06/03 13:26:37;;;;;;;8.50;4.50;;;22.70;55.20;;;;;;5052168;28;20048;-52
2023/06/03 13:29:23;;;;;;;7.93;3.50;;;22.80;55.70;;;;;;5052061;28;20037;-55
2023/06/03 13:32:09;;;;;;;4.70;3.00;;;22.70;54.90;;;;;;5051633;28;20028;-53
2023/06/03 13:34:55;;;;;;;8.98;3.45;;;23.00;55.60;;;;;;5052213;28;20112;-53
2023/06/03 13:37:41;;;;;;;3.67;2.85;;;23.30;56.10;;;;;;5051322;28;20472;-52
2023/06/03 13:40:31;;;;;;;6.20;2.90;;;23.60;55.30;;;;;;5050240;28;20408;-52
2023/06/03 13:43:17;;;;;;;6.65;3.15;;;23.50;54.50;;;;;;5052273;28;20067;-52
2023/06/03 13:46:03;;;;;;;5.18;3.00;;;23.60;54.30;;;;;;5051660;28;20029;-51
2023/06/03 13:48:49;;;;;;;5.07;2.97;;;23.70;54.20;;;;;;5053675;28;20040;-51
2023/06/03 13:51:36;;;;;;;6.43;3.10;;;23.60;53.10;;;;;;5052560;28;20124;-50
2023/06/03 13:54:22;;;;;;;5.95;3.13;;;23.80;54.20;;;;;;5052031;28;20371;-51
2023/06/03 13:57:08;;;;;;;5.47;3.17;;;23.60;53.60;;;;;;5053214;28;20032;-53
2023/06/03 13:59:54;;;;;;;4.65;3.58;;;23.80;53.50;;;;;;5051764;28;20028;-52
2023/06/03 14:02:40;;;;;;;9.05;3.70;;;24.00;52.80;;;;;;5051923;28;20446;-54
2023/06/03 14:05:26;;;;;;;7.78;4.70;;;24.20;52.80;;;;;;5052703;28;20025;-50
2023/06/03 14:08:13;;;;;;;4.60;2.83;;;24.30;52.40;;;;;;5051888;28;20025;-53
2023/06/03 14:10:59;;;;;;;9.55;2.95;;;24.50;52.70;;;;;;5056763;28;20508;-48
2023/06/03 14:13:46;;;;;;;6.13;3.00;;;24.80;52.10;;;;;;5054081;28;20033;-51
2023/06/03 14:16:31;;;;;;;5.63;2.80;;;25.00;51.20;;;;;;5053275;28;20031;-48
2023/06/03 14:19:18;;;;;;;6.38;3.40;;;24.90;50.80;;;;;;5050471;28;20078;-52
2023/06/03 14:22:04;;;;;;;5.80;3.80;;;24.90;51.20;;;;;;5050524;28;20036;-49
2023/06/03 14:24:50;;;;;;;14.40;9.70;;;24.90;51.80;;;;;;5052122;28;20063;-49
2023/06/03 14:27:36;;;;;;;5.05;3.55;;;25.20;51.00;;;;;;5051730;28;20421;-49
2023/06/03 14:30:22;;;;;;;6.43;3.70;;;25.30;49.50;;;;;;5052031;28;20031;-51
2023/06/03 14:33:08;;;;;;;6.40;3.10;;;24.80;49.30;;;;;;5054974;28;20025;-49
2023/06/03 14:35:54;;;;;;;7.93;3.45;;;24.70;49.40;;;;;;5051461;28;20032;-53